sensor_id;sensor_type;location;lat;lon;timestamp;P1;durP1;ratioP1;P2;durP2;ratioP2
16101;SDS011;56411;52.964;10.540;2022-08-26T00:00:28;24.45;;;15.35;;
16101;SDS011;56411;52.964;10.540;2022-08-26T00:02:57;22.67;;;14.48;;
16101;SDS011;56411;52.964;10.540;2022-08-26T00:05:24;22.05;;;14.40;;
16101;SDS011;56411;52.964;10.540;2022-08-26T00:07:51;24.30;;;14.48;;
16101;SDS011;56411;52.964;10.540;2022-08-26T00:10:19;20.98;;;14.35;;
16101;SDS011;56411;52.964;10.540;2022-08-26T00:12:46;21.38;;;14.63;;
16101;SDS011;56411;52.964;10.540;2022-08-26T00:15:14;21.50;;;14.75;;
16101;SDS011;56411;52.964;10.540;2022-08-26T00:17:43;21.00;;;13.98;;
16101;SDS011;56411;52.964;10.540;2022-08-26T00:20:12;19.38;;;13.82;;
16101;SDS011;56411;52.964;10.540;2022-08-26T00:22:40;22.98;;;14.43;;
16101;SDS011;56411;52.964;10.540;2022-08-26T00:25:08;21.98;;;13.65;;
16101;SDS011;56411;52.964;10.540;2022-08-26T00:27:36;21.75;;;13.43;;
16101;SDS011;56411;52.964;10.540;2022-08-26T00:30:05;20.77;;;13.57;;
16101;SDS011;56411;52.964;10.540;2022-08-26T00:32:35;20.42;;;13.52;;
16101;SDS011;56411;52.964;10.540;2022-08-26T00:35:02;20.77;;;13.82;;
16101;SDS011;56411;52.964;10.540;2022-08-26T00:37:31;21.27;;;14.30;;
16101;SDS011;56411;52.964;10.540;2022-08-26T00:39:58;22.70;;;14.23;;
16101;SDS011;56411;52.964;10.540;2022-08-26T00:42:25;21.55;;;13.90;;
16101;SDS011;56411;52.964;10.540;2022-08-26T00:44:52;23.52;;;13.45;;
16101;SDS011;56411;52.964;10.540;2022-08-26T00:47:21;19.88;;;13.68;;
16101;SDS011;56411;52.964;10.540;2022-08-26T00:49:53;19.83;;;13.48;;
16101;SDS011;56411;52.964;10.540;2022-08-26T00:52:21;19.83;;;12.57;;
16101;SDS011;56411;52.964;10.540;2022-08-26T00:54:52;21.67;;;13.65;;
16101;SDS011;56411;52.964;10.540;2022-08-26T00:57:22;20.70;;;12.80;;
16101;SDS011;56411;52.964;10.540;2022-08-26T00:59:50;18.17;;;13.15;;
16101;SDS011;56411;52.964;10.540;2022-08-26T01:02:20;22.52;;;13.18;;
16101;SDS011;56411;52.964;10.540;2022-08-26T01:04:48;19.42;;;13.23;;
16101;SDS011;56411;52.964;10.540;2022-08-26T01:07:16;21.10;;;13.75;;
16101;SDS011;56411;52.964;10.540;2022-08-26T01:09:44;18.77;;;13.25;;
16101;SDS011;56411;52.964;10.540;2022-08-26T01:12:12;20.20;;;13.02;;
16101;SDS011;56411;52.964;10.540;2022-08-26T01:14:39;19.95;;;13.30;;
16101;SDS011;56411;52.964;10.540;2022-08-26T01:17:06;20.27;;;13.98;;
16101;SDS011;56411;52.964;10.540;2022-08-26T01:19:35;23.10;;;13.93;;
16101;SDS011;56411;52.964;10.540;2022-08-26T01:22:07;21.88;;;14.10;;
16101;SDS011;56411;52.964;10.540;2022-08-26T01:24:38;26.90;;;14.65;;
16101;SDS011;56411;52.964;10.540;2022-08-26T01:27:07;21.23;;;13.88;;
16101;SDS011;56411;52.964;10.540;2022-08-26T01:29:38;22.98;;;13.73;;
16101;SDS011;56411;52.964;10.540;2022-08-26T01:32:09;19.10;;;13.05;;
16101;SDS011;56411;52.964;10.540;2022-08-26T01:34:39;23.88;;;13.68;;
16101;SDS011;56411;52.964;10.540;2022-08-26T01:37:07;18.83;;;13.10;;
16101;SDS011;56411;52.964;10.540;2022-08-26T01:39:38;21.45;;;13.82;;
16101;SDS011;56411;52.964;10.540;2022-08-26T01:42:07;21.30;;;13.27;;
16101;SDS011;56411;52.964;10.540;2022-08-26T01:44:38;20.38;;;13.35;;
16101;SDS011;56411;52.964;10.540;2022-08-26T01:47:10;19.42;;;13.38;;
16101;SDS011;56411;52.964;10.540;2022-08-26T01:49:38;22.75;;;13.93;;
16101;SDS011;56411;52.964;10.540;2022-08-26T01:52:06;21.80;;;13.75;;
16101;SDS011;56411;52.964;10.540;2022-08-26T01:54:35;21.02;;;13.77;;
16101;SDS011;56411;52.964;10.540;2022-08-26T01:57:03;22.30;;;14.15;;
16101;SDS011;56411;52.964;10.540;2022-08-26T01:59:32;22.60;;;14.20;;
16101;SDS011;56411;52.964;10.540;2022-08-26T02:02:00;19.45;;;14.18;;
16101;SDS011;56411;52.964;10.540;2022-08-26T02:04:28;18.60;;;14.13;;
16101;SDS011;56411;52.964;10.540;2022-08-26T02:07:00;21.52;;;14.50;;
16101;SDS011;56411;52.964;10.540;2022-08-26T02:09:28;20.50;;;13.40;;
16101;SDS011;56411;52.964;10.540;2022-08-26T02:11:55;19.80;;;14.00;;
16101;SDS011;56411;52.964;10.540;2022-08-26T02:14:27;21.60;;;14.00;;
16101;SDS011;56411;52.964;10.540;2022-08-26T02:16:55;19.73;;;13.35;;
16101;SDS011;56411;52.964;10.540;2022-08-26T02:19:23;22.02;;;14.25;;
16101;SDS011;56411;52.964;10.540;2022-08-26T02:21:53;20.08;;;14.35;;
16101;SDS011;56411;52.964;10.540;2022-08-26T02:24:24;21.73;;;13.18;;
16101;SDS011;56411;52.964;10.540;2022-08-26T02:26:52;24.88;;;14.50;;
16101;SDS011;56411;52.964;10.540;2022-08-26T02:29:21;22.25;;;13.95;;
16101;SDS011;56411;52.964;10.540;2022-08-26T02:31:52;21.30;;;14.00;;
16101;SDS011;56411;52.964;10.540;2022-08-26T02:34:21;19.88;;;13.48;;
16101;SDS011;56411;52.964;10.540;2022-08-26T02:36:51;20.75;;;14.10;;
16101;SDS011;56411;52.964;10.540;2022-08-26T02:39:18;21.50;;;14.38;;
16101;SDS011;56411;52.964;10.540;2022-08-26T02:41:45;22.05;;;14.45;;
16101;SDS011;56411;52.964;10.540;2022-08-26T02:44:12;20.35;;;13.63;;
16101;SDS011;56411;52.964;10.540;2022-08-26T02:46:39;21.60;;;14.43;;
16101;SDS011;56411;52.964;10.540;2022-08-26T02:49:08;22.27;;;14.55;;
16101;SDS011;56411;52.964;10.540;2022-08-26T02:51:34;21.05;;;14.43;;
16101;SDS011;56411;52.964;10.540;2022-08-26T02:54:02;23.75;;;14.88;;
16101;SDS011;56411;52.964;10.540;2022-08-26T02:56:31;20.10;;;14.38;;
16101;SDS011;56411;52.964;10.540;2022-08-26T02:58:58;19.73;;;13.13;;
16101;SDS011;56411;52.964;10.540;2022-08-26T03:01:26;23.75;;;14.77;;
16101;SDS011;56411;52.964;10.540;2022-08-26T03:03:56;22.63;;;14.05;;
16101;SDS011;56411;52.964;10.540;2022-08-26T03:06:25;21.05;;;14.77;;
16101;SDS011;56411;52.964;10.540;2022-08-26T03:08:52;22.35;;;14.55;;
16101;SDS011;56411;52.964;10.540;2022-08-26T03:11:19;21.42;;;14.95;;
16101;SDS011;56411;52.964;10.540;2022-08-26T03:13:47;21.40;;;14.60;;
16101;SDS011;56411;52.964;10.540;2022-08-26T03:16:15;20.60;;;14.10;;
16101;SDS011;56411;52.964;10.540;2022-08-26T03:18:43;21.58;;;14.65;;
16101;SDS011;56411;52.964;10.540;2022-08-26T03:21:10;21.77;;;14.55;;
16101;SDS011;56411;52.964;10.540;2022-08-26T03:23:41;22.38;;;14.98;;
16101;SDS011;56411;52.964;10.540;2022-08-26T03:26:10;21.88;;;14.23;;
16101;SDS011;56411;52.964;10.540;2022-08-26T03:28:38;21.13;;;14.07;;
16101;SDS011;56411;52.964;10.540;2022-08-26T03:31:26;21.75;;;14.10;;
16101;SDS011;56411;52.964;10.540;2022-08-26T03:33:51;23.05;;;14.23;;
16101;SDS011;56411;52.964;10.540;2022-08-26T03:36:19;20.98;;;14.40;;
16101;SDS011;56411;52.964;10.540;2022-08-26T03:38:48;22.95;;;14.68;;
16101;SDS011;56411;52.964;10.540;2022-08-26T03:41:15;22.55;;;14.07;;
16101;SDS011;56411;52.964;10.540;2022-08-26T03:43:42;24.58;;;14.65;;
16101;SDS011;56411;52.964;10.540;2022-08-26T03:46:11;22.52;;;14.75;;
16101;SDS011;56411;52.964;10.540;2022-08-26T03:48:39;20.13;;;14.63;;
16101;SDS011;56411;52.964;10.540;2022-08-26T03:51:10;20.60;;;14.95;;
16101;SDS011;56411;52.964;10.540;2022-08-26T03:53:38;21.95;;;14.45;;
16101;SDS011;56411;52.964;10.540;2022-08-26T03:56:06;22.42;;;15.27;;
16101;SDS011;56411;52.964;10.540;2022-08-26T03:58:33;20.95;;;14.40;;
16101;SDS011;56411;52.964;10.540;2022-08-26T04:01:01;21.88;;;15.32;;
16101;SDS011;56411;52.964;10.540;2022-08-26T04:03:29;22.20;;;15.15;;
16101;SDS011;56411;52.964;10.540;2022-08-26T04:06:14;22.25;;;15.57;;
16101;SDS011;56411;52.964;10.540;2022-08-26T04:08:42;22.05;;;14.77;;
16101;SDS011;56411;52.964;10.540;2022-08-26T04:11:16;23.05;;;15.75;;
16101;SDS011;56411;52.964;10.540;2022-08-26T04:13:44;22.58;;;14.60;;
16101;SDS011;56411;52.964;10.540;2022-08-26T04:16:12;22.77;;;15.43;;
16101;SDS011;56411;52.964;10.540;2022-08-26T04:18:39;22.80;;;15.52;;
16101;SDS011;56411;52.964;10.540;2022-08-26T04:21:06;21.63;;;15.02;;
16101;SDS011;56411;52.964;10.540;2022-08-26T04:23:34;22.80;;;15.65;;
16101;SDS011;56411;52.964;10.540;2022-08-26T04:26:01;20.85;;;15.45;;
16101;SDS011;56411;52.964;10.540;2022-08-26T04:28:30;24.67;;;15.75;;
16101;SDS011;56411;52.964;10.540;2022-08-26T04:30:57;22.33;;;15.30;;
16101;SDS011;56411;52.964;10.540;2022-08-26T04:33:24;23.27;;;15.30;;
16101;SDS011;56411;52.964;10.540;2022-08-26T04:35:57;23.48;;;15.65;;
16101;SDS011;56411;52.964;10.540;2022-08-26T04:38:26;21.58;;;15.63;;
16101;SDS011;56411;52.964;10.540;2022-08-26T04:40:53;23.58;;;15.15;;
16101;SDS011;56411;52.964;10.540;2022-08-26T04:43:21;22.02;;;15.75;;
16101;SDS011;56411;52.964;10.540;2022-08-26T04:45:56;24.45;;;16.08;;
16101;SDS011;56411;52.964;10.540;2022-08-26T04:48:26;22.73;;;15.75;;
16101;SDS011;56411;52.964;10.540;2022-08-26T04:50:54;22.58;;;15.23;;
16101;SDS011;56411;52.964;10.540;2022-08-26T04:53:22;23.35;;;15.65;;
16101;SDS011;56411;52.964;10.540;2022-08-26T04:55:49;21.67;;;15.18;;
16101;SDS011;56411;52.964;10.540;2022-08-26T04:58:16;20.23;;;16.13;;
16101;SDS011;56411;52.964;10.540;2022-08-26T05:00:45;20.35;;;16.02;;
16101;SDS011;56411;52.964;10.540;2022-08-26T05:03:14;26.27;;;16.33;;
16101;SDS011;56411;52.964;10.540;2022-08-26T05:05:41;22.33;;;15.48;;
16101;SDS011;56411;52.964;10.540;2022-08-26T05:08:10;24.23;;;16.33;;
16101;SDS011;56411;52.964;10.540;2022-08-26T05:10:38;25.52;;;16.52;;
16101;SDS011;56411;52.964;10.540;2022-08-26T05:13:06;22.92;;;15.77;;
16101;SDS011;56411;52.964;10.540;2022-08-26T05:15:33;21.45;;;15.88;;
16101;SDS011;56411;52.964;10.540;2022-08-26T05:18:01;23.90;;;15.98;;
16101;SDS011;56411;52.964;10.540;2022-08-26T05:20:29;23.58;;;15.90;;
16101;SDS011;56411;52.964;10.540;2022-08-26T05:22:57;22.63;;;15.68;;
16101;SDS011;56411;52.964;10.540;2022-08-26T05:25:25;22.73;;;16.33;;
16101;SDS011;56411;52.964;10.540;2022-08-26T05:27:52;21.75;;;15.10;;
16101;SDS011;56411;52.964;10.540;2022-08-26T05:30:19;20.15;;;14.80;;
16101;SDS011;56411;52.964;10.540;2022-08-26T05:32:47;22.48;;;15.75;;
16101;SDS011;56411;52.964;10.540;2022-08-26T05:35:14;23.45;;;15.90;;
16101;SDS011;56411;52.964;10.540;2022-08-26T05:37:43;25.20;;;15.50;;
16101;SDS011;56411;52.964;10.540;2022-08-26T05:40:11;22.02;;;15.52;;
16101;SDS011;56411;52.964;10.540;2022-08-26T05:42:38;22.75;;;15.48;;
16101;SDS011;56411;52.964;10.540;2022-08-26T05:45:05;21.38;;;15.45;;
16101;SDS011;56411;52.964;10.540;2022-08-26T05:47:33;22.77;;;15.55;;
16101;SDS011;56411;52.964;10.540;2022-08-26T05:49:59;22.85;;;17.10;;
16101;SDS011;56411;52.964;10.540;2022-08-26T05:52:29;23.45;;;16.85;;
16101;SDS011;56411;52.964;10.540;2022-08-26T05:54:58;24.15;;;16.23;;
16101;SDS011;56411;52.964;10.540;2022-08-26T05:57:26;22.00;;;15.63;;
16101;SDS011;56411;52.964;10.540;2022-08-26T05:59:54;23.08;;;16.20;;
16101;SDS011;56411;52.964;10.540;2022-08-26T06:02:21;22.08;;;16.40;;
16101;SDS011;56411;52.964;10.540;2022-08-26T06:04:48;22.77;;;15.38;;
16101;SDS011;56411;52.964;10.540;2022-08-26T06:07:15;20.88;;;15.38;;
16101;SDS011;56411;52.964;10.540;2022-08-26T06:10:04;21.50;;;15.65;;
16101;SDS011;56411;52.964;10.540;2022-08-26T06:12:32;23.48;;;16.05;;
16101;SDS011;56411;52.964;10.540;2022-08-26T06:14:59;24.00;;;16.60;;
16101;SDS011;56411;52.964;10.540;2022-08-26T06:17:26;21.90;;;16.75;;
16101;SDS011;56411;52.964;10.540;2022-08-26T06:19:53;21.73;;;15.98;;
16101;SDS011;56411;52.964;10.540;2022-08-26T06:22:20;24.45;;;18.58;;
16101;SDS011;56411;52.964;10.540;2022-08-26T06:25:06;22.95;;;17.92;;
16101;SDS011;56411;52.964;10.540;2022-08-26T06:27:51;22.80;;;17.55;;
16101;SDS011;56411;52.964;10.540;2022-08-26T06:30:18;26.10;;;17.20;;
16101;SDS011;56411;52.964;10.540;2022-08-26T06:32:45;22.50;;;17.77;;
16101;SDS011;56411;52.964;10.540;2022-08-26T06:35:12;22.10;;;17.85;;
16101;SDS011;56411;52.964;10.540;2022-08-26T06:37:39;25.83;;;18.38;;
16101;SDS011;56411;52.964;10.540;2022-08-26T06:40:08;24.70;;;17.52;;
16101;SDS011;56411;52.964;10.540;2022-08-26T06:42:36;25.92;;;18.20;;
16101;SDS011;56411;52.964;10.540;2022-08-26T06:45:03;23.40;;;16.58;;
16101;SDS011;56411;52.964;10.540;2022-08-26T06:47:30;25.88;;;17.08;;
16101;SDS011;56411;52.964;10.540;2022-08-26T06:49:58;26.17;;;17.30;;
16101;SDS011;56411;52.964;10.540;2022-08-26T06:52:25;23.25;;;17.40;;
16101;SDS011;56411;52.964;10.540;2022-08-26T06:54:52;22.80;;;17.05;;
16101;SDS011;56411;52.964;10.540;2022-08-26T06:57:20;19.83;;;15.93;;
16101;SDS011;56411;52.964;10.540;2022-08-26T06:59:47;23.30;;;16.88;;
16101;SDS011;56411;52.964;10.540;2022-08-26T07:02:14;23.50;;;16.50;;
16101;SDS011;56411;52.964;10.540;2022-08-26T07:04:41;21.73;;;15.75;;
16101;SDS011;56411;52.964;10.540;2022-08-26T07:07:11;23.02;;;16.27;;
16101;SDS011;56411;52.964;10.540;2022-08-26T07:09:39;25.30;;;16.88;;
16101;SDS011;56411;52.964;10.540;2022-08-26T07:12:06;20.58;;;15.30;;
16101;SDS011;56411;52.964;10.540;2022-08-26T07:14:34;22.88;;;16.25;;
16101;SDS011;56411;52.964;10.540;2022-08-26T07:17:01;19.95;;;15.23;;
16101;SDS011;56411;52.964;10.540;2022-08-26T07:19:28;22.73;;;15.45;;
16101;SDS011;56411;52.964;10.540;2022-08-26T07:21:55;22.40;;;15.07;;
16101;SDS011;56411;52.964;10.540;2022-08-26T07:24:22;19.20;;;13.90;;
16101;SDS011;56411;52.964;10.540;2022-08-26T07:26:49;23.65;;;15.68;;
16101;SDS011;56411;52.964;10.540;2022-08-26T07:29:16;22.23;;;14.57;;
16101;SDS011;56411;52.964;10.540;2022-08-26T07:31:44;20.67;;;14.75;;
16101;SDS011;56411;52.964;10.540;2022-08-26T07:34:11;20.17;;;14.00;;
16101;SDS011;56411;52.964;10.540;2022-08-26T07:36:38;21.58;;;14.25;;
16101;SDS011;56411;52.964;10.540;2022-08-26T07:39:05;20.95;;;13.43;;
16101;SDS011;56411;52.964;10.540;2022-08-26T07:41:32;21.50;;;13.32;;
16101;SDS011;56411;52.964;10.540;2022-08-26T07:44:00;19.02;;;13.27;;
16101;SDS011;56411;52.964;10.540;2022-08-26T07:46:27;20.15;;;12.63;;
16101;SDS011;56411;52.964;10.540;2022-08-26T07:48:56;21.27;;;12.30;;
16101;SDS011;56411;52.964;10.540;2022-08-26T07:51:24;19.60;;;12.35;;
16101;SDS011;56411;52.964;10.540;2022-08-26T07:53:52;17.73;;;11.23;;
16101;SDS011;56411;52.964;10.540;2022-08-26T07:56:19;19.20;;;12.98;;
16101;SDS011;56411;52.964;10.540;2022-08-26T07:58:47;21.38;;;12.48;;
16101;SDS011;56411;52.964;10.540;2022-08-26T08:01:14;22.35;;;11.52;;
16101;SDS011;56411;52.964;10.540;2022-08-26T08:03:41;19.55;;;12.65;;
16101;SDS011;56411;52.964;10.540;2022-08-26T08:06:09;20.35;;;12.10;;
16101;SDS011;56411;52.964;10.540;2022-08-26T08:08:36;17.92;;;11.65;;
16101;SDS011;56411;52.964;10.540;2022-08-26T08:11:05;21.38;;;11.55;;
16101;SDS011;56411;52.964;10.540;2022-08-26T08:13:32;18.77;;;11.40;;
16101;SDS011;56411;52.964;10.540;2022-08-26T08:15:59;17.77;;;12.02;;
16101;SDS011;56411;52.964;10.540;2022-08-26T08:18:26;21.23;;;11.77;;
16101;SDS011;56411;52.964;10.540;2022-08-26T08:20:53;18.48;;;11.43;;
16101;SDS011;56411;52.964;10.540;2022-08-26T08:23:21;20.45;;;11.95;;
16101;SDS011;56411;52.964;10.540;2022-08-26T08:25:48;20.98;;;12.43;;
16101;SDS011;56411;52.964;10.540;2022-08-26T08:28:15;19.90;;;11.55;;
16101;SDS011;56411;52.964;10.540;2022-08-26T08:30:42;18.20;;;11.57;;
16101;SDS011;56411;52.964;10.540;2022-08-26T08:33:09;22.45;;;10.90;;
16101;SDS011;56411;52.964;10.540;2022-08-26T08:35:36;20.02;;;11.50;;
16101;SDS011;56411;52.964;10.540;2022-08-26T08:38:06;19.98;;;11.10;;
16101;SDS011;56411;52.964;10.540;2022-08-26T08:40:34;21.77;;;11.57;;
16101;SDS011;56411;52.964;10.540;2022-08-26T08:43:05;23.70;;;11.10;;
16101;SDS011;56411;52.964;10.540;2022-08-26T08:45:37;22.17;;;11.05;;
16101;SDS011;56411;52.964;10.540;2022-08-26T08:48:09;20.40;;;11.63;;
16101;SDS011;56411;52.964;10.540;2022-08-26T08:50:42;20.02;;;10.82;;
16101;SDS011;56411;52.964;10.540;2022-08-26T08:53:12;20.88;;;11.20;;
16101;SDS011;56411;52.964;10.540;2022-08-26T08:55:46;20.85;;;11.40;;
16101;SDS011;56411;52.964;10.540;2022-08-26T08:58:20;26.20;;;11.32;;
16101;SDS011;56411;52.964;10.540;2022-08-26T09:00:54;22.25;;;11.27;;
16101;SDS011;56411;52.964;10.540;2022-08-26T09:03:29;23.55;;;11.45;;
16101;SDS011;56411;52.964;10.540;2022-08-26T09:06:04;19.70;;;10.02;;
16101;SDS011;56411;52.964;10.540;2022-08-26T09:08:41;22.90;;;11.60;;
16101;SDS011;56411;52.964;10.540;2022-08-26T09:11:11;25.02;;;10.85;;
16101;SDS011;56411;52.964;10.540;2022-08-26T09:13:42;21.98;;;10.35;;
16101;SDS011;56411;52.964;10.540;2022-08-26T09:16:14;21.15;;;10.30;;
16101;SDS011;56411;52.964;10.540;2022-08-26T09:18:51;22.05;;;10.40;;
16101;SDS011;56411;52.964;10.540;2022-08-26T09:21:29;24.83;;;10.90;;
16101;SDS011;56411;52.964;10.540;2022-08-26T09:23:56;21.45;;;10.60;;
16101;SDS011;56411;52.964;10.540;2022-08-26T09:26:26;21.80;;;10.25;;
16101;SDS011;56411;52.964;10.540;2022-08-26T09:28:55;26.30;;;10.57;;
16101;SDS011;56411;52.964;10.540;2022-08-26T09:31:24;23.75;;;10.70;;
16101;SDS011;56411;52.964;10.540;2022-08-26T09:34:03;25.08;;;10.32;;
16101;SDS011;56411;52.964;10.540;2022-08-26T09:36:39;24.75;;;10.30;;
16101;SDS011;56411;52.964;10.540;2022-08-26T09:39:27;26.05;;;10.60;;
16101;SDS011;56411;52.964;10.540;2022-08-26T09:42:07;25.33;;;10.05;;
16101;SDS011;56411;52.964;10.540;2022-08-26T09:44:50;27.02;;;10.23;;
16101;SDS011;56411;52.964;10.540;2022-08-26T09:47:20;23.83;;;9.68;;
16101;SDS011;56411;52.964;10.540;2022-08-26T09:49:55;22.30;;;9.43;;
16101;SDS011;56411;52.964;10.540;2022-08-26T09:52:24;22.95;;;9.48;;
16101;SDS011;56411;52.964;10.540;2022-08-26T09:55:03;26.85;;;9.32;;
16101;SDS011;56411;52.964;10.540;2022-08-26T09:57:43;25.23;;;9.77;;
16101;SDS011;56411;52.964;10.540;2022-08-26T10:00:28;26.20;;;9.80;;
16101;SDS011;56411;52.964;10.540;2022-08-26T10:02:59;19.73;;;8.35;;
16101;SDS011;56411;52.964;10.540;2022-08-26T10:05:28;23.27;;;9.07;;
16101;SDS011;56411;52.964;10.540;2022-08-26T10:08:20;22.27;;;8.88;;
16101;SDS011;56411;52.964;10.540;2022-08-26T10:10:48;23.77;;;8.48;;
16101;SDS011;56411;52.964;10.540;2022-08-26T10:13:18;25.17;;;8.63;;
16101;SDS011;56411;52.964;10.540;2022-08-26T10:15:51;24.83;;;9.55;;
16101;SDS011;56411;52.964;10.540;2022-08-26T10:18:25;23.80;;;9.23;;
16101;SDS011;56411;52.964;10.540;2022-08-26T10:20:57;22.60;;;9.18;;
16101;SDS011;56411;52.964;10.540;2022-08-26T10:23:31;26.35;;;8.80;;
16101;SDS011;56411;52.964;10.540;2022-08-26T10:26:04;23.75;;;8.93;;
16101;SDS011;56411;52.964;10.540;2022-08-26T10:28:38;27.90;;;9.45;;
16101;SDS011;56411;52.964;10.540;2022-08-26T10:31:11;30.88;;;9.68;;
16101;SDS011;56411;52.964;10.540;2022-08-26T10:33:50;28.80;;;9.20;;
16101;SDS011;56411;52.964;10.540;2022-08-26T10:36:18;26.58;;;9.45;;
16101;SDS011;56411;52.964;10.540;2022-08-26T10:39:06;28.30;;;8.70;;
16101;SDS011;56411;52.964;10.540;2022-08-26T10:41:40;23.98;;;9.40;;
16101;SDS011;56411;52.964;10.540;2022-08-26T10:44:11;24.08;;;8.52;;
16101;SDS011;56411;52.964;10.540;2022-08-26T10:46:43;25.23;;;9.30;;
16101;SDS011;56411;52.964;10.540;2022-08-26T10:49:15;23.92;;;8.73;;
16101;SDS011;56411;52.964;10.540;2022-08-26T10:51:46;26.50;;;8.63;;
16101;SDS011;56411;52.964;10.540;2022-08-26T10:54:21;22.70;;;9.15;;
16101;SDS011;56411;52.964;10.540;2022-08-26T10:56:55;25.50;;;9.48;;
16101;SDS011;56411;52.964;10.540;2022-08-26T10:59:32;23.27;;;10.20;;
16101;SDS011;56411;52.964;10.540;2022-08-26T11:02:10;25.17;;;8.50;;
16101;SDS011;56411;52.964;10.540;2022-08-26T11:04:45;26.70;;;9.93;;
16101;SDS011;56411;52.964;10.540;2022-08-26T11:07:38;27.48;;;8.82;;
16101;SDS011;56411;52.964;10.540;2022-08-26T11:10:08;26.70;;;8.75;;
16101;SDS011;56411;52.964;10.540;2022-08-26T11:12:58;28.70;;;9.00;;
16101;SDS011;56411;52.964;10.540;2022-08-26T11:18:40;26.17;;;8.25;;
16101;SDS011;56411;52.964;10.540;2022-08-26T11:27:10;27.65;;;9.50;;
16101;SDS011;56411;52.964;10.540;2022-08-26T11:29:57;28.75;;;8.82;;
16101;SDS011;56411;52.964;10.540;2022-08-26T11:38:21;26.42;;;8.40;;
16101;SDS011;56411;52.964;10.540;2022-08-26T11:40:56;23.70;;;8.50;;
16101;SDS011;56411;52.964;10.540;2022-08-26T11:43:34;22.77;;;7.72;;
16101;SDS011;56411;52.964;10.540;2022-08-26T11:46:03;22.25;;;7.95;;
16101;SDS011;56411;52.964;10.540;2022-08-26T11:48:34;24.35;;;8.60;;
16101;SDS011;56411;52.964;10.540;2022-08-26T11:51:05;23.73;;;8.63;;
16101;SDS011;56411;52.964;10.540;2022-08-26T11:53:35;25.13;;;8.23;;
16101;SDS011;56411;52.964;10.540;2022-08-26T11:56:03;23.90;;;7.85;;
16101;SDS011;56411;52.964;10.540;2022-08-26T11:58:33;28.40;;;8.52;;
16101;SDS011;56411;52.964;10.540;2022-08-26T12:01:06;25.10;;;8.88;;
16101;SDS011;56411;52.964;10.540;2022-08-26T12:03:36;21.73;;;8.45;;
16101;SDS011;56411;52.964;10.540;2022-08-26T12:06:12;25.92;;;8.10;;
16101;SDS011;56411;52.964;10.540;2022-08-26T12:08:43;26.77;;;8.35;;
16101;SDS011;56411;52.964;10.540;2022-08-26T12:11:12;23.80;;;8.55;;
16101;SDS011;56411;52.964;10.540;2022-08-26T12:13:53;20.92;;;7.60;;
16101;SDS011;56411;52.964;10.540;2022-08-26T12:16:23;21.67;;;7.35;;
16101;SDS011;56411;52.964;10.540;2022-08-26T12:18:50;21.42;;;7.70;;
16101;SDS011;56411;52.964;10.540;2022-08-26T12:21:20;21.42;;;7.43;;
16101;SDS011;56411;52.964;10.540;2022-08-26T12:23:49;21.02;;;7.75;;
16101;SDS011;56411;52.964;10.540;2022-08-26T12:26:19;22.30;;;7.45;;
16101;SDS011;56411;52.964;10.540;2022-08-26T12:28:51;24.85;;;7.47;;
16101;SDS011;56411;52.964;10.540;2022-08-26T12:31:22;20.48;;;7.70;;
16101;SDS011;56411;52.964;10.540;2022-08-26T12:33:53;22.52;;;8.48;;
16101;SDS011;56411;52.964;10.540;2022-08-26T12:36:24;22.73;;;8.43;;
16101;SDS011;56411;52.964;10.540;2022-08-26T12:38:55;24.13;;;8.48;;
16101;SDS011;56411;52.964;10.540;2022-08-26T12:41:39;23.90;;;9.15;;
16101;SDS011;56411;52.964;10.540;2022-08-26T12:44:30;19.75;;;7.72;;
16101;SDS011;56411;52.964;10.540;2022-08-26T12:47:10;18.50;;;7.68;;
16101;SDS011;56411;52.964;10.540;2022-08-26T12:49:42;23.60;;;8.25;;
16101;SDS011;56411;52.964;10.540;2022-08-26T12:52:20;21.35;;;9.05;;
16101;SDS011;56411;52.964;10.540;2022-08-26T12:54:55;21.52;;;8.13;;
16101;SDS011;56411;52.964;10.540;2022-08-26T12:57:28;24.83;;;8.23;;
16101;SDS011;56411;52.964;10.540;2022-08-26T13:02:56;22.08;;;8.07;;
16101;SDS011;56411;52.964;10.540;2022-08-26T13:05:24;23.58;;;7.93;;
16101;SDS011;56411;52.964;10.540;2022-08-26T13:08:13;21.38;;;7.88;;
16101;SDS011;56411;52.964;10.540;2022-08-26T13:10:42;20.17;;;8.25;;
16101;SDS011;56411;52.964;10.540;2022-08-26T13:13:11;22.33;;;8.00;;
16101;SDS011;56411;52.964;10.540;2022-08-26T13:15:38;26.90;;;8.23;;
16101;SDS011;56411;52.964;10.540;2022-08-26T13:18:05;20.48;;;8.27;;
16101;SDS011;56411;52.964;10.540;2022-08-26T13:20:32;20.80;;;8.30;;
16101;SDS011;56411;52.964;10.540;2022-08-26T13:22:59;21.75;;;7.68;;
16101;SDS011;56411;52.964;10.540;2022-08-26T13:25:28;19.00;;;8.82;;
16101;SDS011;56411;52.964;10.540;2022-08-26T13:27:55;19.75;;;8.50;;
16101;SDS011;56411;52.964;10.540;2022-08-26T13:30:22;26.35;;;9.10;;
16101;SDS011;56411;52.964;10.540;2022-08-26T13:32:49;22.65;;;8.48;;
16101;SDS011;56411;52.964;10.540;2022-08-26T13:35:17;19.00;;;7.65;;
16101;SDS011;56411;52.964;10.540;2022-08-26T13:37:44;21.52;;;9.63;;
16101;SDS011;56411;52.964;10.540;2022-08-26T13:40:11;22.63;;;9.07;;
16101;SDS011;56411;52.964;10.540;2022-08-26T13:42:39;24.88;;;8.50;;
16101;SDS011;56411;52.964;10.540;2022-08-26T13:45:07;20.52;;;7.50;;
16101;SDS011;56411;52.964;10.540;2022-08-26T13:47:35;21.65;;;8.13;;
16101;SDS011;56411;52.964;10.540;2022-08-26T13:50:02;19.35;;;7.35;;
16101;SDS011;56411;52.964;10.540;2022-08-26T13:52:30;24.45;;;8.77;;
16101;SDS011;56411;52.964;10.540;2022-08-26T13:54:57;22.80;;;7.82;;
16101;SDS011;56411;52.964;10.540;2022-08-26T13:57:24;25.95;;;8.60;;
16101;SDS011;56411;52.964;10.540;2022-08-26T13:59:53;21.58;;;7.22;;
16101;SDS011;56411;52.964;10.540;2022-08-26T14:02:23;25.52;;;7.70;;
16101;SDS011;56411;52.964;10.540;2022-08-26T14:04:50;25.25;;;8.35;;
16101;SDS011;56411;52.964;10.540;2022-08-26T14:07:19;20.35;;;8.50;;
16101;SDS011;56411;52.964;10.540;2022-08-26T14:09:46;19.27;;;7.53;;
16101;SDS011;56411;52.964;10.540;2022-08-26T14:12:13;18.13;;;7.32;;
16101;SDS011;56411;52.964;10.540;2022-08-26T14:14:40;19.60;;;7.20;;
16101;SDS011;56411;52.964;10.540;2022-08-26T14:17:09;22.67;;;8.20;;
16101;SDS011;56411;52.964;10.540;2022-08-26T14:19:36;24.80;;;7.75;;
16101;SDS011;56411;52.964;10.540;2022-08-26T14:22:04;20.70;;;7.72;;
16101;SDS011;56411;52.964;10.540;2022-08-26T14:24:32;23.10;;;7.97;;
16101;SDS011;56411;52.964;10.540;2022-08-26T14:26:58;21.60;;;7.95;;
16101;SDS011;56411;52.964;10.540;2022-08-26T14:29:25;19.67;;;7.15;;
16101;SDS011;56411;52.964;10.540;2022-08-26T14:31:53;20.63;;;7.30;;
16101;SDS011;56411;52.964;10.540;2022-08-26T14:34:25;19.20;;;7.00;;
16101;SDS011;56411;52.964;10.540;2022-08-26T14:36:51;19.25;;;7.13;;
16101;SDS011;56411;52.964;10.540;2022-08-26T14:39:18;16.50;;;7.28;;
16101;SDS011;56411;52.964;10.540;2022-08-26T14:41:46;17.45;;;7.38;;
16101;SDS011;56411;52.964;10.540;2022-08-26T14:44:14;21.85;;;7.30;;
16101;SDS011;56411;52.964;10.540;2022-08-26T14:46:44;16.17;;;7.20;;